sensor_id;sensor_type;location;lat;lon;timestamp;temperature;humidity
5358;DHT22;2702;51.014;7.170;2023-11-22T00:00:26;5.60;99.90
5358;DHT22;2702;51.014;7.170;2023-11-22T00:02:53;5.50;99.90
5358;DHT22;2702;51.014;7.170;2023-11-22T00:05:20;5.50;99.90
5358;DHT22;2702;51.014;7.170;2023-11-22T00:07:47;5.50;99.90
5358;DHT22;2702;51.014;7.170;2023-11-22T00:10:13;5.60;99.90
5358;DHT22;2702;51.014;7.170;2023-11-22T00:12:40;5.50;99.90
5358;DHT22;2702;51.014;7.170;2023-11-22T00:15:07;5.50;99.90
5358;DHT22;2702;51.014;7.170;2023-11-22T00:17:34;5.40;99.90
5358;DHT22;2702;51.014;7.170;2023-11-22T00:20:01;5.40;99.90
5358;DHT22;2702;51.014;7.170;2023-11-22T00:22:32;5.40;99.90
5358;DHT22;2702;51.014;7.170;2023-11-22T00:24:59;5.40;99.90
5358;DHT22;2702;51.014;7.170;2023-11-22T00:27:28;5.50;99.90
5358;DHT22;2702;51.014;7.170;2023-11-22T00:29:58;5.40;99.90
5358;DHT22;2702;51.014;7.170;2023-11-22T00:32:24;5.40;99.90
5358;DHT22;2702;51.014;7.170;2023-11-22T00:34:52;5.40;99.90
5358;DHT22;2702;51.014;7.170;2023-11-22T00:37:18;5.40;99.90
5358;DHT22;2702;51.014;7.170;2023-11-22T00:39:45;5.40;99.90
5358;DHT22;2702;51.014;7.170;2023-11-22T00:42:11;5.30;99.90
5358;DHT22;2702;51.014;7.170;2023-11-22T00:44:38;5.40;99.90
5358;DHT22;2702;51.014;7.170;2023-11-22T00:47:04;5.40;99.90
5358;DHT22;2702;51.014;7.170;2023-11-22T00:49:32;5.40;99.90
5358;DHT22;2702;51.014;7.170;2023-11-22T00:51:59;5.40;99.90
5358;DHT22;2702;51.014;7.170;2023-11-22T00:54:26;5.50;99.90
5358;DHT22;2702;51.014;7.170;2023-11-22T00:56:52;5.50;99.90
5358;DHT22;2702;51.014;7.170;2023-11-22T00:59:18;5.50;99.90
5358;DHT22;2702;51.014;7.170;2023-11-22T01:01:45;5.60;99.90
5358;DHT22;2702;51.014;7.170;2023-11-22T01:04:12;5.60;99.90
5358;DHT22;2702;51.014;7.170;2023-11-22T01:06:38;5.60;99.90
5358;DHT22;2702;51.014;7.170;2023-11-22T01:09:07;5.50;99.90
5358;DHT22;2702;51.014;7.170;2023-11-22T01:11:35;5.50;99.90
5358;DHT22;2702;51.014;7.170;2023-11-22T01:14:02;5.50;99.90
5358;DHT22;2702;51.014;7.170;2023-11-22T01:16:29;5.50;99.90
5358;DHT22;2702;51.014;7.170;2023-11-22T01:18:55;5.50;99.90
5358;DHT22;2702;51.014;7.170;2023-11-22T01:21:22;5.50;99.90
5358;DHT22;2702;51.014;7.170;2023-11-22T01:23:48;5.40;99.90
5358;DHT22;2702;51.014;7.170;2023-11-22T01:26:14;5.40;99.90
5358;DHT22;2702;51.014;7.170;2023-11-22T01:28:43;5.40;99.90
5358;DHT22;2702;51.014;7.170;2023-11-22T01:31:12;5.30;99.90
5358;DHT22;2702;51.014;7.170;2023-11-22T01:33:39;5.30;99.90
5358;DHT22;2702;51.014;7.170;2023-11-22T01:36:06;5.30;99.90
5358;DHT22;2702;51.014;7.170;2023-11-22T01:38:32;5.40;99.90
5358;DHT22;2702;51.014;7.170;2023-11-22T01:40:59;5.40;99.90
5358;DHT22;2702;51.014;7.170;2023-11-22T01:43:28;5.40;99.90
5358;DHT22;2702;51.014;7.170;2023-11-22T01:45:55;5.40;99.90
5358;DHT22;2702;51.014;7.170;2023-11-22T01:48:22;5.30;99.90
5358;DHT22;2702;51.014;7.170;2023-11-22T01:50:50;5.40;99.90
5358;DHT22;2702;51.014;7.170;2023-11-22T01:53:16;5.40;99.90
5358;DHT22;2702;51.014;7.170;2023-11-22T01:55:43;5.30;99.90
5358;DHT22;2702;51.014;7.170;2023-11-22T01:58:11;5.20;99.90
5358;DHT22;2702;51.014;7.170;2023-11-22T02:00:58;5.20;99.90
5358;DHT22;2702;51.014;7.170;2023-11-22T02:03:25;5.20;99.90
5358;DHT22;2702;51.014;7.170;2023-11-22T02:05:52;5.20;99.90
5358;DHT22;2702;51.014;7.170;2023-11-22T02:08:21;5.20;99.90
5358;DHT22;2702;51.014;7.170;2023-11-22T02:10:57;5.10;99.90
5358;DHT22;2702;51.014;7.170;2023-11-22T02:13:25;5.10;99.90
5358;DHT22;2702;51.014;7.170;2023-11-22T02:15:53;5.00;99.90
5358;DHT22;2702;51.014;7.170;2023-11-22T02:18:23;5.10;99.90
5358;DHT22;2702;51.014;7.170;2023-11-22T02:20:50;5.00;99.90
5358;DHT22;2702;51.014;7.170;2023-11-22T02:23:17;5.00;99.90
5358;DHT22;2702;51.014;7.170;2023-11-22T02:25:44;5.10;99.90
5358;DHT22;2702;51.014;7.170;2023-11-22T02:28:14;5.20;99.90
5358;DHT22;2702;51.014;7.170;2023-11-22T02:30:41;5.20;99.90
5358;DHT22;2702;51.014;7.170;2023-11-22T02:33:08;5.20;99.90
5358;DHT22;2702;51.014;7.170;2023-11-22T02:35:34;5.20;99.90
5358;DHT22;2702;51.014;7.170;2023-11-22T02:38:01;5.20;99.90
5358;DHT22;2702;51.014;7.170;2023-11-22T02:40:28;5.20;99.90
5358;DHT22;2702;51.014;7.170;2023-11-22T02:42:57;5.20;99.90
5358;DHT22;2702;51.014;7.170;2023-11-22T02:45:28;5.20;99.90
5358;DHT22;2702;51.014;7.170;2023-11-22T02:47:55;5.20;99.90
5358;DHT22;2702;51.014;7.170;2023-11-22T02:50:22;5.10;99.90
5358;DHT22;2702;51.014;7.170;2023-11-22T02:52:48;5.10;99.90
5358;DHT22;2702;51.014;7.170;2023-11-22T02:55:14;5.10;99.90
5358;DHT22;2702;51.014;7.170;2023-11-22T02:57:41;5.00;99.90
5358;DHT22;2702;51.014;7.170;2023-11-22T03:00:09;5.10;99.90
5358;DHT22;2702;51.014;7.170;2023-11-22T03:02:39;5.00;99.90
5358;DHT22;2702;51.014;7.170;2023-11-22T03:05:09;5.00;99.90
5358;DHT22;2702;51.014;7.170;2023-11-22T03:07:36;5.00;99.90
5358;DHT22;2702;51.014;7.170;2023-11-22T03:10:03;5.00;99.90
5358;DHT22;2702;51.014;7.170;2023-11-22T03:12:30;5.00;99.90
5358;DHT22;2702;51.014;7.170;2023-11-22T03:14:57;4.90;99.90
5358;DHT22;2702;51.014;7.170;2023-11-22T03:17:28;4.90;99.90
5358;DHT22;2702;51.014;7.170;2023-11-22T03:19:56;4.90;99.90
5358;DHT22;2702;51.014;7.170;2023-11-22T03:22:27;5.00;99.90
5358;DHT22;2702;51.014;7.170;2023-11-22T03:24:56;4.90;99.90
5358;DHT22;2702;51.014;7.170;2023-11-22T03:27:25;4.90;99.90
5358;DHT22;2702;51.014;7.170;2023-11-22T03:29:52;4.90;99.90
5358;DHT22;2702;51.014;7.170;2023-11-22T03:32:18;4.90;99.90
5358;DHT22;2702;51.014;7.170;2023-11-22T03:34:45;4.90;99.90
5358;DHT22;2702;51.014;7.170;2023-11-22T03:37:11;4.90;99.90
5358;DHT22;2702;51.014;7.170;2023-11-22T03:39:38;4.90;99.90
5358;DHT22;2702;51.014;7.170;2023-11-22T03:42:06;4.80;99.90
5358;DHT22;2702;51.014;7.170;2023-11-22T03:44:33;4.90;99.90
5358;DHT22;2702;51.014;7.170;2023-11-22T03:46:59;4.90;99.90
5358;DHT22;2702;51.014;7.170;2023-11-22T03:49:26;4.80;99.90
5358;DHT22;2702;51.014;7.170;2023-11-22T03:51:52;4.80;99.90
5358;DHT22;2702;51.014;7.170;2023-11-22T03:54:18;4.80;99.90
5358;DHT22;2702;51.014;7.170;2023-11-22T03:56:45;4.70;99.90
5358;DHT22;2702;51.014;7.170;2023-11-22T03:59:13;4.70;99.90
5358;DHT22;2702;51.014;7.170;2023-11-22T04:01:39;4.70;99.90
5358;DHT22;2702;51.014;7.170;2023-11-22T04:04:06;4.70;99.90
5358;DHT22;2702;51.014;7.170;2023-11-22T04:06:34;4.70;99.90
5358;DHT22;2702;51.014;7.170;2023-11-22T04:09:01;4.70;99.90
5358;DHT22;2702;51.014;7.170;2023-11-22T04:11:28;4.60;99.90
5358;DHT22;2702;51.014;7.170;2023-11-22T04:13:55;4.60;99.90
5358;DHT22;2702;51.014;7.170;2023-11-22T04:16:22;4.60;99.90
5358;DHT22;2702;51.014;7.170;2023-11-22T04:18:49;4.50;99.90
5358;DHT22;2702;51.014;7.170;2023-11-22T04:21:15;4.50;99.90
5358;DHT22;2702;51.014;7.170;2023-11-22T04:23:41;4.50;99.90
5358;DHT22;2702;51.014;7.170;2023-11-22T04:26:08;4.40;99.90
5358;DHT22;2702;51.014;7.170;2023-11-22T04:28:34;4.40;99.90
5358;DHT22;2702;51.014;7.170;2023-11-22T04:31:01;4.30;99.90
5358;DHT22;2702;51.014;7.170;2023-11-22T04:33:27;4.20;99.90
5358;DHT22;2702;51.014;7.170;2023-11-22T04:35:54;4.20;99.90
5358;DHT22;2702;51.014;7.170;2023-11-22T04:38:21;4.20;99.90
5358;DHT22;2702;51.014;7.170;2023-11-22T04:40:47;4.10;99.90
5358;DHT22;2702;51.014;7.170;2023-11-22T04:43:14;4.10;99.90
5358;DHT22;2702;51.014;7.170;2023-11-22T04:45:40;4.00;99.90
5358;DHT22;2702;51.014;7.170;2023-11-22T04:48:07;4.00;99.90
5358;DHT22;2702;51.014;7.170;2023-11-22T04:50:33;4.00;99.90
5358;DHT22;2702;51.014;7.170;2023-11-22T04:53:00;4.00;99.90
5358;DHT22;2702;51.014;7.170;2023-11-22T04:55:29;3.90;99.90
5358;DHT22;2702;51.014;7.170;2023-11-22T04:57:56;3.80;99.90
5358;DHT22;2702;51.014;7.170;2023-11-22T05:00:22;3.80;99.90
5358;DHT22;2702;51.014;7.170;2023-11-22T05:02:52;3.70;99.90
5358;DHT22;2702;51.014;7.170;2023-11-22T05:05:18;3.70;99.90
5358;DHT22;2702;51.014;7.170;2023-11-22T05:07:45;3.60;99.90
5358;DHT22;2702;51.014;7.170;2023-11-22T05:10:11;3.60;99.90
5358;DHT22;2702;51.014;7.170;2023-11-22T05:12:38;3.60;99.90
5358;DHT22;2702;51.014;7.170;2023-11-22T05:15:06;3.60;99.90
5358;DHT22;2702;51.014;7.170;2023-11-22T05:17:33;3.60;99.90
5358;DHT22;2702;51.014;7.170;2023-11-22T05:19:59;3.70;99.90
5358;DHT22;2702;51.014;7.170;2023-11-22T05:22:26;3.60;99.90
5358;DHT22;2702;51.014;7.170;2023-11-22T05:24:52;3.60;99.90
5358;DHT22;2702;51.014;7.170;2023-11-22T05:27:19;3.50;99.90
5358;DHT22;2702;51.014;7.170;2023-11-22T05:29:45;3.60;99.90
5358;DHT22;2702;51.014;7.170;2023-11-22T05:32:12;3.60;99.90
5358;DHT22;2702;51.014;7.170;2023-11-22T05:34:38;3.60;99.90
5358;DHT22;2702;51.014;7.170;2023-11-22T05:37:06;3.50;99.90
5358;DHT22;2702;51.014;7.170;2023-11-22T05:39:33;3.40;99.90
5358;DHT22;2702;51.014;7.170;2023-11-22T05:41:59;3.30;99.90
5358;DHT22;2702;51.014;7.170;2023-11-22T05:44:27;3.30;99.90
5358;DHT22;2702;51.014;7.170;2023-11-22T05:46:53;3.30;99.90
5358;DHT22;2702;51.014;7.170;2023-11-22T05:49:20;3.20;99.90
5358;DHT22;2702;51.014;7.170;2023-11-22T05:51:47;3.20;99.90
5358;DHT22;2702;51.014;7.170;2023-11-22T05:54:13;3.20;99.90
5358;DHT22;2702;51.014;7.170;2023-11-22T05:56:43;3.20;99.90
5358;DHT22;2702;51.014;7.170;2023-11-22T05:59:09;3.30;99.90
5358;DHT22;2702;51.014;7.170;2023-11-22T06:01:36;3.30;99.90
5358;DHT22;2702;51.014;7.170;2023-11-22T06:04:02;3.30;99.90
5358;DHT22;2702;51.014;7.170;2023-11-22T06:06:29;3.40;99.90
5358;DHT22;2702;51.014;7.170;2023-11-22T06:08:56;3.50;99.90
5358;DHT22;2702;51.014;7.170;2023-11-22T06:11:22;3.50;99.90
5358;DHT22;2702;51.014;7.170;2023-11-22T06:13:49;3.60;99.90
5358;DHT22;2702;51.014;7.170;2023-11-22T06:16:15;3.60;99.90
5358;DHT22;2702;51.014;7.170;2023-11-22T06:18:42;3.70;99.90
5358;DHT22;2702;51.014;7.170;2023-11-22T06:21:10;3.70;99.90
5358;DHT22;2702;51.014;7.170;2023-11-22T06:23:37;3.70;99.90
5358;DHT22;2702;51.014;7.170;2023-11-22T06:26:03;3.80;99.90
5358;DHT22;2702;51.014;7.170;2023-11-22T06:28:29;3.80;99.90
5358;DHT22;2702;51.014;7.170;2023-11-22T06:30:56;3.60;99.90
5358;DHT22;2702;51.014;7.170;2023-11-22T06:33:23;3.60;99.90
5358;DHT22;2702;51.014;7.170;2023-11-22T06:35:49;3.50;99.90
5358;DHT22;2702;51.014;7.170;2023-11-22T06:38:15;3.40;99.90
5358;DHT22;2702;51.014;7.170;2023-11-22T06:40:42;3.40;99.90
5358;DHT22;2702;51.014;7.170;2023-11-22T06:43:09;3.30;99.90
5358;DHT22;2702;51.014;7.170;2023-11-22T06:45:36;3.30;99.90
5358;DHT22;2702;51.014;7.170;2023-11-22T06:48:02;3.30;99.90
5358;DHT22;2702;51.014;7.170;2023-11-22T06:50:28;3.30;99.90
5358;DHT22;2702;51.014;7.170;2023-11-22T06:52:55;3.30;99.90
5358;DHT22;2702;51.014;7.170;2023-11-22T06:55:21;3.20;99.90
5358;DHT22;2702;51.014;7.170;2023-11-22T06:57:48;3.20;99.90
5358;DHT22;2702;51.014;7.170;2023-11-22T07:00:15;3.10;99.90
5358;DHT22;2702;51.014;7.170;2023-11-22T07:02:42;3.10;99.90
5358;DHT22;2702;51.014;7.170;2023-11-22T07:05:09;3.10;99.90
5358;DHT22;2702;51.014;7.170;2023-11-22T07:07:37;3.10;99.90
5358;DHT22;2702;51.014;7.170;2023-11-22T07:10:05;3.00;99.90
5358;DHT22;2702;51.014;7.170;2023-11-22T07:12:33;2.90;99.90
5358;DHT22;2702;51.014;7.170;2023-11-22T07:15:02;3.00;99.90
5358;DHT22;2702;51.014;7.170;2023-11-22T07:17:32;2.90;99.90
5358;DHT22;2702;51.014;7.170;2023-11-22T07:19:59;2.80;99.90
5358;DHT22;2702;51.014;7.170;2023-11-22T07:22:28;2.80;99.90
5358;DHT22;2702;51.014;7.170;2023-11-22T07:24:56;2.70;99.90
5358;DHT22;2702;51.014;7.170;2023-11-22T07:27:28;2.70;99.90
5358;DHT22;2702;51.014;7.170;2023-11-22T07:29:54;2.60;99.90
5358;DHT22;2702;51.014;7.170;2023-11-22T07:32:21;2.60;99.90
5358;DHT22;2702;51.014;7.170;2023-11-22T07:34:47;2.60;99.90
5358;DHT22;2702;51.014;7.170;2023-11-22T07:37:14;2.50;99.90
5358;DHT22;2702;51.014;7.170;2023-11-22T07:39:41;2.50;99.90
5358;DHT22;2702;51.014;7.170;2023-11-22T07:42:10;2.60;99.90
5358;DHT22;2702;51.014;7.170;2023-11-22T07:44:36;2.60;99.90
5358;DHT22;2702;51.014;7.170;2023-11-22T07:47:04;2.60;99.90
5358;DHT22;2702;51.014;7.170;2023-11-22T07:49:35;2.60;99.90
5358;DHT22;2702;51.014;7.170;2023-11-22T07:52:05;2.50;99.90
5358;DHT22;2702;51.014;7.170;2023-11-22T07:54:33;2.60;99.90
5358;DHT22;2702;51.014;7.170;2023-11-22T07:57:01;2.60;99.90
5358;DHT22;2702;51.014;7.170;2023-11-22T07:59:28;2.60;99.90
5358;DHT22;2702;51.014;7.170;2023-11-22T08:01:54;2.60;99.90
5358;DHT22;2702;51.014;7.170;2023-11-22T08:04:21;2.60;99.90
5358;DHT22;2702;51.014;7.170;2023-11-22T08:06:49;2.60;99.90
5358;DHT22;2702;51.014;7.170;2023-11-22T08:09:15;2.70;99.90
5358;DHT22;2702;51.014;7.170;2023-11-22T08:11:43;2.70;99.90
5358;DHT22;2702;51.014;7.170;2023-11-22T08:14:09;2.70;99.90
5358;DHT22;2702;51.014;7.170;2023-11-22T08:16:36;2.70;99.90
5358;DHT22;2702;51.014;7.170;2023-11-22T08:19:05;2.70;99.90
5358;DHT22;2702;51.014;7.170;2023-11-22T08:21:31;2.90;99.90
5358;DHT22;2702;51.014;7.170;2023-11-22T08:23:59;3.00;99.90
5358;DHT22;2702;51.014;7.170;2023-11-22T08:26:26;3.10;99.90
5358;DHT22;2702;51.014;7.170;2023-11-22T08:28:54;3.20;99.90
5358;DHT22;2702;51.014;7.170;2023-11-22T08:31:21;3.40;99.90
5358;DHT22;2702;51.014;7.170;2023-11-22T08:33:48;3.50;99.90
5358;DHT22;2702;51.014;7.170;2023-11-22T08:36:14;3.50;99.90
5358;DHT22;2702;51.014;7.170;2023-11-22T08:38:41;3.50;99.90
5358;DHT22;2702;51.014;7.170;2023-11-22T08:41:09;3.50;99.90
5358;DHT22;2702;51.014;7.170;2023-11-22T08:43:40;3.50;99.90
5358;DHT22;2702;51.014;7.170;2023-11-22T08:46:06;3.60;99.90
5358;DHT22;2702;51.014;7.170;2023-11-22T08:48:34;3.60;99.90
5358;DHT22;2702;51.014;7.170;2023-11-22T08:51:01;3.50;99.90
5358;DHT22;2702;51.014;7.170;2023-11-22T08:53:30;3.60;99.90
5358;DHT22;2702;51.014;7.170;2023-11-22T08:55:56;3.60;99.90
5358;DHT22;2702;51.014;7.170;2023-11-22T08:58:23;3.50;99.90
5358;DHT22;2702;51.014;7.170;2023-11-22T09:00:50;3.60;99.90
5358;DHT22;2702;51.014;7.170;2023-11-22T09:03:17;3.60;99.90
5358;DHT22;2702;51.014;7.170;2023-11-22T09:05:43;3.60;99.90
5358;DHT22;2702;51.014;7.170;2023-11-22T09:08:12;3.60;99.90
5358;DHT22;2702;51.014;7.170;2023-11-22T09:10:42;3.70;99.90
5358;DHT22;2702;51.014;7.170;2023-11-22T09:13:09;3.70;99.90
5358;DHT22;2702;51.014;7.170;2023-11-22T09:15:36;3.80;99.90
5358;DHT22;2702;51.014;7.170;2023-11-22T09:18:05;3.90;99.90
5358;DHT22;2702;51.014;7.170;2023-11-22T09:20:32;3.90;99.90
5358;DHT22;2702;51.014;7.170;2023-11-22T09:22:58;4.00;99.90
5358;DHT22;2702;51.014;7.170;2023-11-22T09:25:26;4.00;99.90
5358;DHT22;2702;51.014;7.170;2023-11-22T09:27:57;4.20;99.90
5358;DHT22;2702;51.014;7.170;2023-11-22T09:30:31;4.20;99.90
5358;DHT22;2702;51.014;7.170;2023-11-22T09:33:03;4.30;99.90
5358;DHT22;2702;51.014;7.170;2023-11-22T09:35:30;4.50;99.90
5358;DHT22;2702;51.014;7.170;2023-11-22T09:38:06;4.50;99.90
5358;DHT22;2702;51.014;7.170;2023-11-22T09:40:48;4.60;99.90
5358;DHT22;2702;51.014;7.170;2023-11-22T09:43:16;4.60;99.90
5358;DHT22;2702;51.014;7.170;2023-11-22T09:45:47;4.70;99.90
5358;DHT22;2702;51.014;7.170;2023-11-22T09:48:18;4.80;99.90
5358;DHT22;2702;51.014;7.170;2023-11-22T09:51:09;4.80;99.90
5358;DHT22;2702;51.014;7.170;2023-11-22T09:56:11;4.80;99.90
5358;DHT22;2702;51.014;7.170;2023-11-22T09:58:41;4.80;99.90
5358;DHT22;2702;51.014;7.170;2023-11-22T10:01:12;4.80;99.90
5358;DHT22;2702;51.014;7.170;2023-11-22T10:03:39;4.90;99.90
5358;DHT22;2702;51.014;7.170;2023-11-22T10:06:06;4.90;99.90
5358;DHT22;2702;51.014;7.170;2023-11-22T10:08:33;4.90;99.90
5358;DHT22;2702;51.014;7.170;2023-11-22T10:11:01;4.90;99.90
5358;DHT22;2702;51.014;7.170;2023-11-22T10:13:30;5.00;99.90
5358;DHT22;2702;51.014;7.170;2023-11-22T10:16:10;5.10;99.90
5358;DHT22;2702;51.014;7.170;2023-11-22T10:18:44;5.10;99.90
5358;DHT22;2702;51.014;7.170;2023-11-22T10:21:29;5.10;99.90
5358;DHT22;2702;51.014;7.170;2023-11-22T10:24:00;5.00;99.90
5358;DHT22;2702;51.014;7.170;2023-11-22T10:26:28;5.10;99.90
5358;DHT22;2702;51.014;7.170;2023-11-22T10:28:56;5.20;99.90
5358;DHT22;2702;51.014;7.170;2023-11-22T10:31:23;5.20;99.90
5358;DHT22;2702;51.014;7.170;2023-11-22T10:33:51;5.20;99.90
5358;DHT22;2702;51.014;7.170;2023-11-22T10:36:19;5.40;99.90
5358;DHT22;2702;51.014;7.170;2023-11-22T10:38:48;5.50;99.90
5358;DHT22;2702;51.014;7.170;2023-11-22T10:41:14;5.60;99.90
5358;DHT22;2702;51.014;7.170;2023-11-22T10:43:41;5.70;99.90
5358;DHT22;2702;51.014;7.170;2023-11-22T10:46:12;5.70;99.90
5358;DHT22;2702;51.014;7.170;2023-11-22T10:48:39;5.70;99.90
5358;DHT22;2702;51.014;7.170;2023-11-22T10:51:06;5.70;99.90
5358;DHT22;2702;51.014;7.170;2023-11-22T10:53:36;5.80;99.90
5358;DHT22;2702;51.014;7.170;2023-11-22T10:56:11;5.80;99.90
5358;DHT22;2702;51.014;7.170;2023-11-22T10:58:58;5.90;99.90
5358;DHT22;2702;51.014;7.170;2023-11-22T11:01:25;6.00;99.90
5358;DHT22;2702;51.014;7.170;2023-11-22T11:03:56;6.00;99.90
5358;DHT22;2702;51.014;7.170;2023-11-22T11:06:26;6.10;99.90
5358;DHT22;2702;51.014;7.170;2023-11-22T11:09:00;6.10;99.90
5358;DHT22;2702;51.014;7.170;2023-11-22T11:11:31;6.00;99.90
5358;DHT22;2702;51.014;7.170;2023-11-22T11:13:59;6.00;99.90
5358;DHT22;2702;51.014;7.170;2023-11-22T11:16:28;6.00;99.90
5358;DHT22;2702;51.014;7.170;2023-11-22T11:18:58;6.00;99.90
5358;DHT22;2702;51.014;7.170;2023-11-22T11:21:25;6.00;99.90
5358;DHT22;2702;51.014;7.170;2023-11-22T11:23:55;6.00;99.90
5358;DHT22;2702;51.014;7.170;2023-11-22T11:26:29;6.10;99.90
5358;DHT22;2702;51.014;7.170;2023-11-22T11:28:58;6.00;99.90
5358;DHT22;2702;51.014;7.170;2023-11-22T11:31:31;6.20;99.90
5358;DHT22;2702;51.014;7.170;2023-11-22T11:34:06;6.20;99.90
5358;DHT22;2702;51.014;7.170;2023-11-22T11:36:32;6.20;99.90
5358;DHT22;2702;51.014;7.170;2023-11-22T11:39:06;6.30;99.90
5358;DHT22;2702;51.014;7.170;2023-11-22T11:41:35;6.30;99.90
5358;DHT22;2702;51.014;7.170;2023-11-22T11:44:08;6.40;99.90
5358;DHT22;2702;51.014;7.170;2023-11-22T11:46:37;6.40;99.90
5358;DHT22;2702;51.014;7.170;2023-11-22T11:49:08;6.50;99.90
5358;DHT22;2702;51.014;7.170;2023-11-22T11:51:35;6.60;99.90
5358;DHT22;2702;51.014;7.170;2023-11-22T11:54:02;6.60;99.90
5358;DHT22;2702;51.014;7.170;2023-11-22T11:56:28;6.60;99.90
5358;DHT22;2702;51.014;7.170;2023-11-22T11:58:57;6.60;99.90
5358;DHT22;2702;51.014;7.170;2023-11-22T12:01:28;6.60;99.90
5358;DHT22;2702;51.014;7.170;2023-11-22T12:04:01;6.70;99.90
5358;DHT22;2702;51.014;7.170;2023-11-22T12:06:28;6.90;99.90
5358;DHT22;2702;51.014;7.170;2023-11-22T12:08:56;6.70;99.90
5358;DHT22;2702;51.014;7.170;2023-11-22T12:11:22;6.80;99.90
5358;DHT22;2702;51.014;7.170;2023-11-22T12:13:49;6.80;99.90
5358;DHT22;2702;51.014;7.170;2023-11-22T12:16:18;6.60;99.90
5358;DHT22;2702;51.014;7.170;2023-11-22T12:18:47;6.50;99.90
5358;DHT22;2702;51.014;7.170;2023-11-22T12:21:18;6.40;99.90
5358;DHT22;2702;51.014;7.170;2023-11-22T12:23:46;6.50;99.90
5358;DHT22;2702;51.014;7.170;2023-11-22T12:26:14;6.40;99.90
5358;DHT22;2702;51.014;7.170;2023-11-22T12:28:45;6.30;99.90
5358;DHT22;2702;51.014;7.170;2023-11-22T12:31:13;6.50;99.90
5358;DHT22;2702;51.014;7.170;2023-11-22T12:33:43;6.70;99.90
5358;DHT22;2702;51.014;7.170;2023-11-22T12:36:11;6.80;99.90
5358;DHT22;2702;51.014;7.170;2023-11-22T12:38:43;6.90;99.90
5358;DHT22;2702;51.014;7.170;2023-11-22T12:41:09;7.10;99.90
5358;DHT22;2702;51.014;7.170;2023-11-22T12:43:36;7.10;99.90
5358;DHT22;2702;51.014;7.170;2023-11-22T12:46:04;7.10;99.90
5358;DHT22;2702;51.014;7.170;2023-11-22T12:48:34;7.10;99.90
5358;DHT22;2702;51.014;7.170;2023-11-22T12:51:02;7.10;99.90
5358;DHT22;2702;51.014;7.170;2023-11-22T12:53:29;7.10;99.90
5358;DHT22;2702;51.014;7.170;2023-11-22T12:55:57;7.00;99.90
5358;DHT22;2702;51.014;7.170;2023-11-22T12:58:25;7.00;99.90
5358;DHT22;2702;51.014;7.170;2023-11-22T13:00:53;7.00;99.90
5358;DHT22;2702;51.014;7.170;2023-11-22T13:03:25;7.00;99.90
5358;DHT22;2702;51.014;7.170;2023-11-22T13:05:52;7.00;99.90
5358;DHT22;2702;51.014;7.170;2023-11-22T13:08:19;7.00;99.90
5358;DHT22;2702;51.014;7.170;2023-11-22T13:10:50;6.90;99.90
5358;DHT22;2702;51.014;7.170;2023-11-22T13:13:23;6.80;99.90
5358;DHT22;2702;51.014;7.170;2023-11-22T13:15:52;6.90;99.90
5358;DHT22;2702;51.014;7.170;2023-11-22T13:18:19;6.90;99.90
5358;DHT22;2702;51.014;7.170;2023-11-22T13:20:45;7.00;99.90
5358;DHT22;2702;51.014;7.170;2023-11-22T13:23:12;7.00;99.90
5358;DHT22;2702;51.014;7.170;2023-11-22T13:25:40;6.80;99.90
5358;DHT22;2702;51.014;7.170;2023-11-22T13:28:07;6.90;99.90
5358;DHT22;2702;51.014;7.170;2023-11-22T13:30:35;6.80;99.90
5358;DHT22;2702;51.014;7.170;2023-11-22T13:33:01;6.90;99.90
5358;DHT22;2702;51.014;7.170;2023-11-22T13:35:29;6.70;99.90
5358;DHT22;2702;51.014;7.170;2023-11-22T13:37:58;6.70;99.90
5358;DHT22;2702;51.014;7.170;2023-11-22T13:40:28;6.50;99.90
5358;DHT22;2702;51.014;7.170;2023-11-22T13:42:58;6.40;99.90
5358;DHT22;2702;51.014;7.170;2023-11-22T13:45:24;6.50;99.90
5358;DHT22;2702;51.014;7.170;2023-11-22T13:47:55;6.60;99.90
5358;DHT22;2702;51.014;7.170;2023-11-22T13:50:27;6.70;99.90
5358;DHT22;2702;51.014;7.170;2023-11-22T13:52:55;6.80;99.90
5358;DHT22;2702;51.014;7.170;2023-11-22T13:55:22;6.70;99.90
5358;DHT22;2702;51.014;7.170;2023-11-22T13:57:51;6.60;99.90
5358;DHT22;2702;51.014;7.170;2023-11-22T14:00:18;6.50;99.90
5358;DHT22;2702;51.014;7.170;2023-11-22T14:02:49;6.30;99.90
5358;DHT22;2702;51.014;7.170;2023-11-22T14:05:19;6.40;99.90
5358;DHT22;2702;51.014;7.170;2023-11-22T14:07:45;6.50;99.90
5358;DHT22;2702;51.014;7.170;2023-11-22T14:10:12;6.70;99.90
5358;DHT22;2702;51.014;7.170;2023-11-22T14:12:44;6.70;99.90
5358;DHT22;2702;51.014;7.170;2023-11-22T14:15:11;6.50;99.90
5358;DHT22;2702;51.014;7.170;2023-11-22T14:17:38;6.30;99.90
5358;DHT22;2702;51.014;7.170;2023-11-22T14:20:08;6.30;99.90
5358;DHT22;2702;51.014;7.170;2023-11-22T14:22:38;6.10;99.90
5358;DHT22;2702;51.014;7.170;2023-11-22T14:25:06;6.30;99.90
5358;DHT22;2702;51.014;7.170;2023-11-22T14:27:43;6.50;99.90
5358;DHT22;2702;51.014;7.170;2023-11-22T14:30:11;6.40;99.90
5358;DHT22;2702;51.014;7.170;2023-11-22T14:32:40;6.40;99.90
5358;DHT22;2702;51.014;7.170;2023-11-22T14:35:09;6.40;99.90
5358;DHT22;2702;51.014;7.170;2023-11-22T14:37:36;6.50;99.90
5358;DHT22;2702;51.014;7.170;2023-11-22T14:40:11;6.50;99.90
5358;DHT22;2702;51.014;7.170;2023-11-22T14:42:43;6.30;99.90
5358;DHT22;2702;51.014;7.170;2023-11-22T14:45:18;6.30;99.90
5358;DHT22;2702;51.014;7.170;2023-11-22T14:47:48;6.30;99.90
5358;DHT22;2702;51.014;7.170;2023-11-22T14:50:16;6.20;99.90
5358;DHT22;2702;51.014;7.170;2023-11-22T14:52:43;6.10;99.90
5358;DHT22;2702;51.014;7.170;2023-11-22T14:55:11;6.10;99.90
5358;DHT22;2702;51.014;7.170;2023-11-22T14:57:38;6.10;99.90
5358;DHT22;2702;51.014;7.170;2023-11-22T15:00:06;6.20;99.90
5358;DHT22;2702;51.014;7.170;2023-11-22T15:02:36;6.30;99.90
5358;DHT22;2702;51.014;7.170;2023-11-22T15:05:03;6.30;99.90
5358;DHT22;2702;51.014;7.170;2023-11-22T15:07:30;6.20;99.90
5358;DHT22;2702;51.014;7.170;2023-11-22T15:09:57;6.20;99.90
5358;DHT22;2702;51.014;7.170;2023-11-22T15:12:23;6.20;99.90
5358;DHT22;2702;51.014;7.170;2023-11-22T15:14:51;6.30;99.90
5358;DHT22;2702;51.014;7.170;2023-11-22T15:17:18;6.20;99.90
5358;DHT22;2702;51.014;7.170;2023-11-22T15:19:44;6.30;99.90
5358;DHT22;2702;51.014;7.170;2023-11-22T15:22:11;6.20;99.90
5358;DHT22;2702;51.014;7.170;2023-11-22T15:24:37;6.30;99.90
5358;DHT22;2702;51.014;7.170;2023-11-22T15:27:04;6.30;99.90
5358;DHT22;2702;51.014;7.170;2023-11-22T15:29:30;6.30;99.90
5358;DHT22;2702;51.014;7.170;2023-11-22T15:31:58;6.30;99.90
5358;DHT22;2702;51.014;7.170;2023-11-22T15:34:24;6.30;99.90
5358;DHT22;2702;51.014;7.170;2023-11-22T15:36:51;6.30;99.90
5358;DHT22;2702;51.014;7.170;2023-11-22T15:39:17;6.20;99.90
5358;DHT22;2702;51.014;7.170;2023-11-22T15:41:48;5.90;99.90
5358;DHT22;2702;51.014;7.170;2023-11-22T15:44:14;5.80;99.90
5358;DHT22;2702;51.014;7.170;2023-11-22T15:46:42;5.80;99.90
5358;DHT22;2702;51.014;7.170;2023-11-22T15:49:08;5.80;99.90
5358;DHT22;2702;51.014;7.170;2023-11-22T15:51:36;5.70;99.90
5358;DHT22;2702;51.014;7.170;2023-11-22T15:54:03;5.60;99.90
5358;DHT22;2702;51.014;7.170;2023-11-22T15:56:29;5.50;99.90
5358;DHT22;2702;51.014;7.170;2023-11-22T15:58:57;5.50;99.90
5358;DHT22;2702;51.014;7.170;2023-11-22T16:01:26;5.40;99.90
5358;DHT22;2702;51.014;7.170;2023-11-22T16:03:53;5.40;99.90
5358;DHT22;2702;51.014;7.170;2023-11-22T16:06:20;5.50;99.90
5358;DHT22;2702;51.014;7.170;2023-11-22T16:08:47;5.60;99.90
5358;DHT22;2702;51.014;7.170;2023-11-22T16:11:14;5.60;99.90
5358;DHT22;2702;51.014;7.170;2023-11-22T16:13:41;5.70;99.90
5358;DHT22;2702;51.014;7.170;2023-11-22T16:16:07;5.70;99.90
5358;DHT22;2702;51.014;7.170;2023-11-22T16:18:34;5.70;99.90
5358;DHT22;2702;51.014;7.170;2023-11-22T16:21:02;5.70;99.90
5358;DHT22;2702;51.014;7.170;2023-11-22T16:23:28;5.80;99.90